sensor_id;sensor_type;location;lat;lon;timestamp;P1;durP1;ratioP1;P2;durP2;ratioP2
25962;SDS011;13760;52.588;13.406;2023-06-24T00:01:49;22.70;;;17.83;;
25962;SDS011;13760;52.588;13.406;2023-06-24T00:04:14;22.75;;;17.85;;
25962;SDS011;13760;52.588;13.406;2023-06-24T00:06:43;21.67;;;17.10;;
25962;SDS011;13760;52.588;13.406;2023-06-24T00:09:09;23.35;;;17.52;;
25962;SDS011;13760;52.588;13.406;2023-06-24T00:11:35;23.42;;;17.55;;
25962;SDS011;13760;52.588;13.406;2023-06-24T00:14:00;18.73;;;15.93;;
25962;SDS011;13760;52.588;13.406;2023-06-24T00:16:26;21.70;;;17.10;;
25962;SDS011;13760;52.588;13.406;2023-06-24T00:18:51;22.55;;;16.40;;
25962;SDS011;13760;52.588;13.406;2023-06-24T00:21:18;20.38;;;18.15;;
25962;SDS011;13760;52.588;13.406;2023-06-24T00:23:44;23.42;;;17.98;;
25962;SDS011;13760;52.588;13.406;2023-06-24T00:26:10;24.33;;;16.92;;
25962;SDS011;13760;52.588;13.406;2023-06-24T00:28:35;20.73;;;17.55;;
25962;SDS011;13760;52.588;13.406;2023-06-24T00:31:01;18.63;;;16.33;;
25962;SDS011;13760;52.588;13.406;2023-06-24T00:33:27;20.58;;;16.92;;
25962;SDS011;13760;52.588;13.406;2023-06-24T00:35:53;19.10;;;16.63;;
25962;SDS011;13760;52.588;13.406;2023-06-24T00:38:21;29.27;;;16.52;;
25962;SDS011;13760;52.588;13.406;2023-06-24T00:40:47;26.67;;;17.08;;
25962;SDS011;13760;52.588;13.406;2023-06-24T00:43:12;23.52;;;18.33;;
25962;SDS011;13760;52.588;13.406;2023-06-24T00:45:38;26.45;;;18.45;;
25962;SDS011;13760;52.588;13.406;2023-06-24T00:48:04;24.65;;;19.70;;
25962;SDS011;13760;52.588;13.406;2023-06-24T00:50:30;27.45;;;20.52;;
25962;SDS011;13760;52.588;13.406;2023-06-24T00:52:55;32.22;;;22.10;;
25962;SDS011;13760;52.588;13.406;2023-06-24T00:55:21;36.05;;;22.42;;
25962;SDS011;13760;52.588;13.406;2023-06-24T00:57:50;37.63;;;24.80;;
25962;SDS011;13760;52.588;13.406;2023-06-24T01:00:18;35.75;;;23.73;;
25962;SDS011;13760;52.588;13.406;2023-06-24T01:02:46;38.72;;;23.98;;
25962;SDS011;13760;52.588;13.406;2023-06-24T01:05:12;34.03;;;22.80;;
25962;SDS011;13760;52.588;13.406;2023-06-24T01:07:39;34.72;;;24.30;;
25962;SDS011;13760;52.588;13.406;2023-06-24T01:10:05;34.17;;;23.98;;
25962;SDS011;13760;52.588;13.406;2023-06-24T01:12:36;32.92;;;24.88;;
25962;SDS011;13760;52.588;13.406;2023-06-24T01:15:03;31.67;;;23.73;;
25962;SDS011;13760;52.588;13.406;2023-06-24T01:17:35;38.00;;;23.33;;
25962;SDS011;13760;52.588;13.406;2023-06-24T01:22:59;33.17;;;24.17;;
25962;SDS011;13760;52.588;13.406;2023-06-24T01:25:59;30.00;;;24.17;;
25962;SDS011;13760;52.588;13.406;2023-06-24T01:29:00;34.53;;;24.95;;
25962;SDS011;13760;52.588;13.406;2023-06-24T01:31:52;34.55;;;24.70;;
25962;SDS011;13760;52.588;13.406;2023-06-24T01:39:46;32.30;;;23.33;;
25962;SDS011;13760;52.588;13.406;2023-06-24T01:42:22;29.17;;;23.05;;
25962;SDS011;13760;52.588;13.406;2023-06-24T01:44:48;32.38;;;22.55;;
25962;SDS011;13760;52.588;13.406;2023-06-24T01:47:18;29.85;;;22.58;;
25962;SDS011;13760;52.588;13.406;2023-06-24T01:49:48;30.33;;;23.88;;
25962;SDS011;13760;52.588;13.406;2023-06-24T01:52:17;32.95;;;23.83;;
25962;SDS011;13760;52.588;13.406;2023-06-24T01:54:45;29.85;;;22.63;;
25962;SDS011;13760;52.588;13.406;2023-06-24T01:57:14;36.75;;;23.95;;
25962;SDS011;13760;52.588;13.406;2023-06-24T01:59:42;35.17;;;23.90;;
25962;SDS011;13760;52.588;13.406;2023-06-24T02:02:10;29.10;;;22.77;;
25962;SDS011;13760;52.588;13.406;2023-06-24T02:04:37;28.98;;;22.83;;
25962;SDS011;13760;52.588;13.406;2023-06-24T02:07:04;28.13;;;22.38;;
25962;SDS011;13760;52.588;13.406;2023-06-24T02:09:32;31.17;;;22.42;;
25962;SDS011;13760;52.588;13.406;2023-06-24T02:11:59;26.95;;;22.55;;
25962;SDS011;13760;52.588;13.406;2023-06-24T02:14:27;34.20;;;22.48;;
25962;SDS011;13760;52.588;13.406;2023-06-24T02:16:55;28.95;;;22.58;;
25962;SDS011;13760;52.588;13.406;2023-06-24T02:19:24;30.58;;;22.33;;
25962;SDS011;13760;52.588;13.406;2023-06-24T02:21:52;28.95;;;22.15;;
25962;SDS011;13760;52.588;13.406;2023-06-24T02:24:19;29.95;;;22.77;;
25962;SDS011;13760;52.588;13.406;2023-06-24T02:26:45;28.98;;;24.20;;
25962;SDS011;13760;52.588;13.406;2023-06-24T02:29:12;30.58;;;22.58;;
25962;SDS011;13760;52.588;13.406;2023-06-24T02:31:38;28.88;;;22.40;;
25962;SDS011;13760;52.588;13.406;2023-06-24T02:34:04;27.73;;;21.98;;
25962;SDS011;13760;52.588;13.406;2023-06-24T02:36:30;27.63;;;20.95;;
25962;SDS011;13760;52.588;13.406;2023-06-24T02:38:56;29.75;;;22.63;;
25962;SDS011;13760;52.588;13.406;2023-06-24T02:41:21;29.30;;;21.90;;
25962;SDS011;13760;52.588;13.406;2023-06-24T02:43:47;28.13;;;22.40;;
25962;SDS011;13760;52.588;13.406;2023-06-24T02:46:12;32.33;;;22.58;;
25962;SDS011;13760;52.588;13.406;2023-06-24T02:48:40;33.95;;;21.70;;
25962;SDS011;13760;52.588;13.406;2023-06-24T02:51:06;22.42;;;19.48;;
25962;SDS011;13760;52.588;13.406;2023-06-24T02:53:34;28.95;;;21.77;;
25962;SDS011;13760;52.588;13.406;2023-06-24T02:56:02;27.48;;;19.52;;
25962;SDS011;13760;52.588;13.406;2023-06-24T02:58:29;27.25;;;19.75;;
25962;SDS011;13760;52.588;13.406;2023-06-24T03:00:58;27.05;;;20.20;;
25962;SDS011;13760;52.588;13.406;2023-06-24T03:03:24;23.33;;;18.13;;
25962;SDS011;13760;52.588;13.406;2023-06-24T03:05:52;24.60;;;20.08;;
25962;SDS011;13760;52.588;13.406;2023-06-24T03:08:19;28.25;;;20.73;;
25962;SDS011;13760;52.588;13.406;2023-06-24T03:10:45;27.70;;;18.77;;
25962;SDS011;13760;52.588;13.406;2023-06-24T03:13:11;24.40;;;18.60;;
25962;SDS011;13760;52.588;13.406;2023-06-24T03:15:36;25.15;;;19.17;;
25962;SDS011;13760;52.588;13.406;2023-06-24T03:18:02;29.83;;;20.00;;
25962;SDS011;13760;52.588;13.406;2023-06-24T03:20:27;28.02;;;19.45;;
25962;SDS011;13760;52.588;13.406;2023-06-24T03:22:53;25.75;;;19.63;;
25962;SDS011;13760;52.588;13.406;2023-06-24T03:25:21;27.50;;;19.63;;
25962;SDS011;13760;52.588;13.406;2023-06-24T03:27:46;29.20;;;19.70;;
25962;SDS011;13760;52.588;13.406;2023-06-24T03:30:12;26.80;;;20.73;;
25962;SDS011;13760;52.588;13.406;2023-06-24T03:32:39;30.67;;;20.45;;
25962;SDS011;13760;52.588;13.406;2023-06-24T03:35:05;32.03;;;20.23;;
25962;SDS011;13760;52.588;13.406;2023-06-24T03:37:32;27.17;;;18.60;;
25962;SDS011;13760;52.588;13.406;2023-06-24T03:39:57;30.23;;;19.48;;
25962;SDS011;13760;52.588;13.406;2023-06-24T03:42:23;31.08;;;19.30;;
25962;SDS011;13760;52.588;13.406;2023-06-24T03:44:48;26.23;;;19.80;;
25962;SDS011;13760;52.588;13.406;2023-06-24T03:47:14;24.60;;;18.75;;
25962;SDS011;13760;52.588;13.406;2023-06-24T03:49:39;23.08;;;18.65;;
25962;SDS011;13760;52.588;13.406;2023-06-24T03:52:05;23.10;;;19.20;;
25962;SDS011;13760;52.588;13.406;2023-06-24T03:54:33;27.67;;;18.38;;
25962;SDS011;13760;52.588;13.406;2023-06-24T03:56:59;23.13;;;18.65;;
25962;SDS011;13760;52.588;13.406;2023-06-24T03:59:24;24.38;;;18.63;;
25962;SDS011;13760;52.588;13.406;2023-06-24T04:01:50;26.40;;;18.40;;
25962;SDS011;13760;52.588;13.406;2023-06-24T04:04:16;22.75;;;18.67;;
25962;SDS011;13760;52.588;13.406;2023-06-24T04:06:41;26.38;;;19.38;;
25962;SDS011;13760;52.588;13.406;2023-06-24T04:09:07;25.13;;;18.60;;
25962;SDS011;13760;52.588;13.406;2023-06-24T04:11:35;30.33;;;19.58;;
25962;SDS011;13760;52.588;13.406;2023-06-24T04:14:00;30.95;;;19.27;;
25962;SDS011;13760;52.588;13.406;2023-06-24T04:16:26;25.38;;;19.30;;
25962;SDS011;13760;52.588;13.406;2023-06-24T04:18:52;24.80;;;19.30;;
25962;SDS011;13760;52.588;13.406;2023-06-24T04:21:18;24.65;;;18.77;;
25962;SDS011;13760;52.588;13.406;2023-06-24T04:23:43;24.83;;;19.20;;
25962;SDS011;13760;52.588;13.406;2023-06-24T04:26:09;24.50;;;18.35;;
25962;SDS011;13760;52.588;13.406;2023-06-24T04:28:34;23.08;;;18.75;;
25962;SDS011;13760;52.588;13.406;2023-06-24T04:31:00;25.60;;;18.65;;
25962;SDS011;13760;52.588;13.406;2023-06-24T04:33:26;27.58;;;19.30;;
25962;SDS011;13760;52.588;13.406;2023-06-24T04:35:51;26.08;;;19.67;;
25962;SDS011;13760;52.588;13.406;2023-06-24T04:38:17;25.63;;;19.20;;
25962;SDS011;13760;52.588;13.406;2023-06-24T04:40:43;29.48;;;20.08;;
25962;SDS011;13760;52.588;13.406;2023-06-24T04:43:10;25.75;;;19.52;;
25962;SDS011;13760;52.588;13.406;2023-06-24T04:45:35;23.90;;;19.75;;
25962;SDS011;13760;52.588;13.406;2023-06-24T04:48:01;27.67;;;19.50;;
25962;SDS011;13760;52.588;13.406;2023-06-24T04:50:26;25.85;;;18.63;;
25962;SDS011;13760;52.588;13.406;2023-06-24T04:52:52;25.23;;;19.55;;
25962;SDS011;13760;52.588;13.406;2023-06-24T04:55:26;22.63;;;18.30;;
25962;SDS011;13760;52.588;13.406;2023-06-24T04:57:54;23.58;;;17.40;;
25962;SDS011;13760;52.588;13.406;2023-06-24T05:00:20;24.15;;;18.30;;
25962;SDS011;13760;52.588;13.406;2023-06-24T05:02:48;21.60;;;17.90;;
25962;SDS011;13760;52.588;13.406;2023-06-24T05:05:13;24.92;;;18.23;;
25962;SDS011;13760;52.588;13.406;2023-06-24T05:07:39;23.20;;;17.95;;
25962;SDS011;13760;52.588;13.406;2023-06-24T05:10:05;22.63;;;17.17;;
25962;SDS011;13760;52.588;13.406;2023-06-24T05:12:30;24.33;;;16.75;;
25962;SDS011;13760;52.588;13.406;2023-06-24T05:14:56;23.42;;;17.00;;
25962;SDS011;13760;52.588;13.406;2023-06-24T05:17:21;22.85;;;16.83;;
25962;SDS011;13760;52.588;13.406;2023-06-24T05:19:47;21.58;;;15.65;;
25962;SDS011;13760;52.588;13.406;2023-06-24T05:22:12;22.98;;;16.80;;
25962;SDS011;13760;52.588;13.406;2023-06-24T05:24:38;21.73;;;16.40;;
25962;SDS011;13760;52.588;13.406;2023-06-24T05:27:05;24.33;;;17.30;;
25962;SDS011;13760;52.588;13.406;2023-06-24T05:29:32;20.40;;;15.55;;
25962;SDS011;13760;52.588;13.406;2023-06-24T05:31:58;22.02;;;15.50;;
25962;SDS011;13760;52.588;13.406;2023-06-24T05:34:24;20.27;;;14.70;;
25962;SDS011;13760;52.588;13.406;2023-06-24T05:36:50;21.58;;;14.85;;
25962;SDS011;13760;52.588;13.406;2023-06-24T05:39:16;23.00;;;14.85;;
25962;SDS011;13760;52.588;13.406;2023-06-24T05:41:42;27.75;;;15.45;;
25962;SDS011;13760;52.588;13.406;2023-06-24T05:44:08;19.13;;;15.23;;
25962;SDS011;13760;52.588;13.406;2023-06-24T05:46:35;19.30;;;16.08;;
25962;SDS011;13760;52.588;13.406;2023-06-24T05:49:01;20.92;;;15.70;;
25962;SDS011;13760;52.588;13.406;2023-06-24T05:51:27;19.05;;;14.30;;
25962;SDS011;13760;52.588;13.406;2023-06-24T05:53:52;19.58;;;14.05;;
25962;SDS011;13760;52.588;13.406;2023-06-24T05:56:19;19.30;;;14.15;;
25962;SDS011;13760;52.588;13.406;2023-06-24T05:58:45;20.02;;;15.15;;
25962;SDS011;13760;52.588;13.406;2023-06-24T06:01:11;16.38;;;13.80;;
25962;SDS011;13760;52.588;13.406;2023-06-24T06:03:36;18.30;;;14.35;;
25962;SDS011;13760;52.588;13.406;2023-06-24T06:06:02;17.33;;;13.15;;
25962;SDS011;13760;52.588;13.406;2023-06-24T06:08:27;19.13;;;14.20;;
25962;SDS011;13760;52.588;13.406;2023-06-24T06:10:53;18.48;;;14.13;;
25962;SDS011;13760;52.588;13.406;2023-06-24T06:13:19;20.13;;;15.40;;
25962;SDS011;13760;52.588;13.406;2023-06-24T06:15:44;21.05;;;14.43;;
25962;SDS011;13760;52.588;13.406;2023-06-24T06:18:11;18.05;;;14.70;;
25962;SDS011;13760;52.588;13.406;2023-06-24T06:20:37;17.30;;;13.20;;
25962;SDS011;13760;52.588;13.406;2023-06-24T06:23:02;16.80;;;13.30;;
25962;SDS011;13760;52.588;13.406;2023-06-24T06:25:28;15.95;;;12.82;;
25962;SDS011;13760;52.588;13.406;2023-06-24T06:27:53;17.55;;;12.77;;
25962;SDS011;13760;52.588;13.406;2023-06-24T06:30:19;15.93;;;12.15;;
25962;SDS011;13760;52.588;13.406;2023-06-24T06:32:45;16.98;;;13.38;;
25962;SDS011;13760;52.588;13.406;2023-06-24T06:35:10;17.05;;;11.95;;
25962;SDS011;13760;52.588;13.406;2023-06-24T06:37:36;14.90;;;12.40;;
25962;SDS011;13760;52.588;13.406;2023-06-24T06:40:02;14.80;;;12.48;;
25962;SDS011;13760;52.588;13.406;2023-06-24T06:42:28;15.32;;;11.68;;
25962;SDS011;13760;52.588;13.406;2023-06-24T06:44:54;16.88;;;11.75;;
25962;SDS011;13760;52.588;13.406;2023-06-24T06:47:19;17.48;;;11.90;;
25962;SDS011;13760;52.588;13.406;2023-06-24T06:49:45;17.65;;;11.38;;
25962;SDS011;13760;52.588;13.406;2023-06-24T06:52:11;16.58;;;11.40;;
25962;SDS011;13760;52.588;13.406;2023-06-24T06:54:36;13.98;;;11.05;;
25962;SDS011;13760;52.588;13.406;2023-06-24T06:57:02;18.08;;;11.55;;
25962;SDS011;13760;52.588;13.406;2023-06-24T06:59:31;12.38;;;10.32;;
25962;SDS011;13760;52.588;13.406;2023-06-24T07:01:57;14.57;;;11.38;;
25962;SDS011;13760;52.588;13.406;2023-06-24T07:04:23;15.05;;;11.50;;
25962;SDS011;13760;52.588;13.406;2023-06-24T07:06:52;15.63;;;10.90;;
25962;SDS011;13760;52.588;13.406;2023-06-24T07:09:19;13.13;;;9.77;;
25962;SDS011;13760;52.588;13.406;2023-06-24T07:11:45;16.60;;;9.93;;
25962;SDS011;13760;52.588;13.406;2023-06-24T07:14:10;11.45;;;9.30;;
25962;SDS011;13760;52.588;13.406;2023-06-24T07:16:36;18.65;;;9.00;;
25962;SDS011;13760;52.588;13.406;2023-06-24T07:19:02;14.27;;;8.43;;
25962;SDS011;13760;52.588;13.406;2023-06-24T07:21:28;10.00;;;8.85;;
25962;SDS011;13760;52.588;13.406;2023-06-24T07:23:56;12.75;;;8.18;;
25962;SDS011;13760;52.588;13.406;2023-06-24T07:26:22;11.00;;;8.23;;
25962;SDS011;13760;52.588;13.406;2023-06-24T07:28:47;13.00;;;9.55;;
25962;SDS011;13760;52.588;13.406;2023-06-24T07:31:13;16.33;;;9.65;;
25962;SDS011;13760;52.588;13.406;2023-06-24T07:33:38;15.00;;;9.98;;
25962;SDS011;13760;52.588;13.406;2023-06-24T07:36:04;17.38;;;9.75;;
25962;SDS011;13760;52.588;13.406;2023-06-24T07:38:29;13.07;;;8.80;;
25962;SDS011;13760;52.588;13.406;2023-06-24T07:40:55;11.85;;;8.45;;
25962;SDS011;13760;52.588;13.406;2023-06-24T07:43:20;12.45;;;8.20;;
25962;SDS011;13760;52.588;13.406;2023-06-24T07:45:46;16.10;;;7.75;;
25962;SDS011;13760;52.588;13.406;2023-06-24T07:48:12;9.30;;;7.05;;
25962;SDS011;13760;52.588;13.406;2023-06-24T07:50:37;10.00;;;6.75;;
25962;SDS011;13760;52.588;13.406;2023-06-24T07:53:04;10.65;;;6.68;;
25962;SDS011;13760;52.588;13.406;2023-06-24T07:55:29;12.43;;;7.47;;
25962;SDS011;13760;52.588;13.406;2023-06-24T07:57:55;10.43;;;7.28;;
25962;SDS011;13760;52.588;13.406;2023-06-24T08:00:20;11.52;;;6.82;;
25962;SDS011;13760;52.588;13.406;2023-06-24T08:02:46;11.48;;;7.07;;
25962;SDS011;13760;52.588;13.406;2023-06-24T08:05:11;9.60;;;7.53;;
25962;SDS011;13760;52.588;13.406;2023-06-24T08:07:37;8.75;;;7.38;;
25962;SDS011;13760;52.588;13.406;2023-06-24T08:10:03;8.00;;;6.70;;
25962;SDS011;13760;52.588;13.406;2023-06-24T08:12:29;10.60;;;6.97;;
25962;SDS011;13760;52.588;13.406;2023-06-24T08:14:56;8.32;;;6.50;;
25962;SDS011;13760;52.588;13.406;2023-06-24T08:17:21;15.85;;;6.53;;
25962;SDS011;13760;52.588;13.406;2023-06-24T08:19:47;11.98;;;7.22;;
25962;SDS011;13760;52.588;13.406;2023-06-24T08:22:13;9.70;;;7.05;;
25962;SDS011;13760;52.588;13.406;2023-06-24T08:24:39;9.45;;;6.32;;
25962;SDS011;13760;52.588;13.406;2023-06-24T08:27:05;10.77;;;6.63;;
25962;SDS011;13760;52.588;13.406;2023-06-24T08:29:31;10.77;;;7.40;;
25962;SDS011;13760;52.588;13.406;2023-06-24T08:31:56;9.68;;;6.35;;
25962;SDS011;13760;52.588;13.406;2023-06-24T08:34:22;6.82;;;6.05;;
25962;SDS011;13760;52.588;13.406;2023-06-24T08:36:47;10.45;;;5.63;;
25962;SDS011;13760;52.588;13.406;2023-06-24T08:39:13;8.80;;;6.38;;
25962;SDS011;13760;52.588;13.406;2023-06-24T08:41:38;8.95;;;6.22;;
25962;SDS011;13760;52.588;13.406;2023-06-24T08:44:04;9.75;;;6.47;;
25962;SDS011;13760;52.588;13.406;2023-06-24T08:46:29;9.80;;;6.50;;
25962;SDS011;13760;52.588;13.406;2023-06-24T08:49:44;9.85;;;6.38;;
25962;SDS011;13760;52.588;13.406;2023-06-24T08:51:46;9.73;;;5.90;;
25962;SDS011;13760;52.588;13.406;2023-06-24T08:54:22;7.13;;;5.68;;
25962;SDS011;13760;52.588;13.406;2023-06-24T08:56:48;8.57;;;5.82;;
25962;SDS011;13760;52.588;13.406;2023-06-24T08:59:14;10.35;;;5.95;;
25962;SDS011;13760;52.588;13.406;2023-06-24T09:01:44;7.28;;;5.85;;
25962;SDS011;13760;52.588;13.406;2023-06-24T09:04:10;8.45;;;5.72;;
25962;SDS011;13760;52.588;13.406;2023-06-24T09:06:36;10.23;;;6.00;;
25962;SDS011;13760;52.588;13.406;2023-06-24T09:09:01;11.65;;;6.15;;
25962;SDS011;13760;52.588;13.406;2023-06-24T09:11:27;9.38;;;5.75;;
25962;SDS011;13760;52.588;13.406;2023-06-24T09:13:57;9.10;;;5.80;;
25962;SDS011;13760;52.588;13.406;2023-06-24T09:16:24;9.73;;;5.78;;
25962;SDS011;13760;52.588;13.406;2023-06-24T09:18:50;13.50;;;6.15;;
25962;SDS011;13760;52.588;13.406;2023-06-24T09:21:23;10.38;;;6.55;;
25962;SDS011;13760;52.588;13.406;2023-06-24T09:23:55;7.13;;;6.10;;
25962;SDS011;13760;52.588;13.406;2023-06-24T09:26:22;11.90;;;5.85;;
25962;SDS011;13760;52.588;13.406;2023-06-24T09:28:49;8.55;;;5.68;;
25962;SDS011;13760;52.588;13.406;2023-06-24T09:31:15;9.32;;;5.97;;
25962;SDS011;13760;52.588;13.406;2023-06-24T09:33:40;8.68;;;5.80;;
25962;SDS011;13760;52.588;13.406;2023-06-24T09:36:06;7.68;;;5.05;;
25962;SDS011;13760;52.588;13.406;2023-06-24T09:38:36;10.63;;;5.60;;
25962;SDS011;13760;52.588;13.406;2023-06-24T09:41:03;8.90;;;5.32;;
25962;SDS011;13760;52.588;13.406;2023-06-24T09:43:38;8.90;;;6.10;;
25962;SDS011;13760;52.588;13.406;2023-06-24T09:46:07;7.57;;;5.60;;
25962;SDS011;13760;52.588;13.406;2023-06-24T09:48:33;8.10;;;5.38;;
25962;SDS011;13760;52.588;13.406;2023-06-24T09:51:00;9.15;;;5.65;;
25962;SDS011;13760;52.588;13.406;2023-06-24T09:53:30;12.52;;;5.63;;
25962;SDS011;13760;52.588;13.406;2023-06-24T09:55:57;12.70;;;5.80;;
25962;SDS011;13760;52.588;13.406;2023-06-24T09:58:29;9.55;;;4.78;;
25962;SDS011;13760;52.588;13.406;2023-06-24T10:00:57;8.68;;;5.60;;
25962;SDS011;13760;52.588;13.406;2023-06-24T10:03:28;8.65;;;4.72;;
25962;SDS011;13760;52.588;13.406;2023-06-24T10:05:57;8.02;;;4.85;;
25962;SDS011;13760;52.588;13.406;2023-06-24T10:08:22;5.18;;;4.38;;
25962;SDS011;13760;52.588;13.406;2023-06-24T10:10:48;8.40;;;4.32;;
25962;SDS011;13760;52.588;13.406;2023-06-24T10:13:14;5.53;;;4.38;;
25962;SDS011;13760;52.588;13.406;2023-06-24T10:15:40;8.85;;;4.40;;
25962;SDS011;13760;52.588;13.406;2023-06-24T10:20:53;10.75;;;5.07;;
25962;SDS011;13760;52.588;13.406;2023-06-24T10:23:18;7.47;;;4.65;;
25962;SDS011;13760;52.588;13.406;2023-06-24T10:25:44;9.05;;;4.70;;
25962;SDS011;13760;52.588;13.406;2023-06-24T10:28:12;7.07;;;3.95;;
25962;SDS011;13760;52.588;13.406;2023-06-24T10:30:38;5.13;;;4.60;;
25962;SDS011;13760;52.588;13.406;2023-06-24T10:33:03;5.35;;;4.63;;
25962;SDS011;13760;52.588;13.406;2023-06-24T10:35:36;7.85;;;4.43;;
25962;SDS011;13760;52.588;13.406;2023-06-24T10:38:06;5.47;;;4.32;;
25962;SDS011;13760;52.588;13.406;2023-06-24T10:40:41;7.13;;;4.43;;
25962;SDS011;13760;52.588;13.406;2023-06-24T10:45:52;6.15;;;4.35;;
25962;SDS011;13760;52.588;13.406;2023-06-24T10:48:19;11.38;;;4.45;;
25962;SDS011;13760;52.588;13.406;2023-06-24T10:50:45;7.20;;;4.50;;
25962;SDS011;13760;52.588;13.406;2023-06-24T10:53:12;10.70;;;4.50;;
25962;SDS011;13760;52.588;13.406;2023-06-24T10:55:38;5.28;;;3.95;;
25962;SDS011;13760;52.588;13.406;2023-06-24T10:58:11;6.65;;;4.38;;
25962;SDS011;13760;52.588;13.406;2023-06-24T11:00:38;6.97;;;4.68;;
25962;SDS011;13760;52.588;13.406;2023-06-24T11:03:08;6.28;;;4.53;;
25962;SDS011;13760;52.588;13.406;2023-06-24T11:05:36;7.65;;;4.60;;
25962;SDS011;13760;52.588;13.406;2023-06-24T11:08:06;4.72;;;4.15;;
25962;SDS011;13760;52.588;13.406;2023-06-24T11:10:32;5.45;;;3.75;;
25962;SDS011;13760;52.588;13.406;2023-06-24T11:12:57;5.63;;;3.92;;
25962;SDS011;13760;52.588;13.406;2023-06-24T11:15:30;7.32;;;4.03;;
25962;SDS011;13760;52.588;13.406;2023-06-24T11:17:57;10.73;;;4.85;;
25962;SDS011;13760;52.588;13.406;2023-06-24T11:20:22;10.90;;;4.63;;
25962;SDS011;13760;52.588;13.406;2023-06-24T11:22:48;9.25;;;4.25;;
25962;SDS011;13760;52.588;13.406;2023-06-24T11:25:20;7.93;;;4.38;;
25962;SDS011;13760;52.588;13.406;2023-06-24T11:27:46;6.78;;;4.22;;
25962;SDS011;13760;52.588;13.406;2023-06-24T11:30:13;6.07;;;3.88;;
25962;SDS011;13760;52.588;13.406;2023-06-24T11:32:39;8.70;;;3.83;;
25962;SDS011;13760;52.588;13.406;2023-06-24T11:35:07;7.07;;;3.78;;
25962;SDS011;13760;52.588;13.406;2023-06-24T11:37:34;5.72;;;4.10;;
25962;SDS011;13760;52.588;13.406;2023-06-24T11:40:03;4.90;;;4.15;;
25962;SDS011;13760;52.588;13.406;2023-06-24T11:42:30;4.43;;;3.60;;
25962;SDS011;13760;52.588;13.406;2023-06-24T11:45:00;8.00;;;3.72;;
25962;SDS011;13760;52.588;13.406;2023-06-24T11:47:27;6.22;;;3.65;;
25962;SDS011;13760;52.588;13.406;2023-06-24T11:49:58;8.55;;;3.72;;
25962;SDS011;13760;52.588;13.406;2023-06-24T11:57:46;6.05;;;3.63;;
25962;SDS011;13760;52.588;13.406;2023-06-24T12:02:54;5.00;;;4.10;;
25962;SDS011;13760;52.588;13.406;2023-06-24T12:08:01;5.72;;;3.65;;
25962;SDS011;13760;52.588;13.406;2023-06-24T12:10:30;6.50;;;3.47;;
25962;SDS011;13760;52.588;13.406;2023-06-24T12:12:58;5.50;;;3.60;;
25962;SDS011;13760;52.588;13.406;2023-06-24T12:15:25;5.35;;;4.00;;
25962;SDS011;13760;52.588;13.406;2023-06-24T12:17:51;9.02;;;3.60;;
25962;SDS011;13760;52.588;13.406;2023-06-24T12:20:16;7.30;;;4.05;;
25962;SDS011;13760;52.588;13.406;2023-06-24T12:22:43;4.28;;;3.70;;
25962;SDS011;13760;52.588;13.406;2023-06-24T12:25:10;5.85;;;3.72;;
25962;SDS011;13760;52.588;13.406;2023-06-24T12:27:43;5.45;;;4.00;;
25962;SDS011;13760;52.588;13.406;2023-06-24T12:30:10;6.10;;;4.15;;
25962;SDS011;13760;52.588;13.406;2023-06-24T12:32:37;8.50;;;4.35;;
25962;SDS011;13760;52.588;13.406;2023-06-24T12:35:03;8.20;;;3.80;;
25962;SDS011;13760;52.588;13.406;2023-06-24T12:37:30;8.20;;;4.25;;
25962;SDS011;13760;52.588;13.406;2023-06-24T12:39:59;7.60;;;4.20;;
25962;SDS011;13760;52.588;13.406;2023-06-24T12:42:25;7.55;;;4.22;;
25962;SDS011;13760;52.588;13.406;2023-06-24T12:44:51;7.80;;;4.05;;
25962;SDS011;13760;52.588;13.406;2023-06-24T12:47:17;6.15;;;4.13;;
25962;SDS011;13760;52.588;13.406;2023-06-24T12:49:43;9.90;;;3.92;;
25962;SDS011;13760;52.588;13.406;2023-06-24T12:52:08;8.93;;;4.60;;
25962;SDS011;13760;52.588;13.406;2023-06-24T12:54:34;4.47;;;4.05;;
25962;SDS011;13760;52.588;13.406;2023-06-24T12:57:00;5.78;;;4.38;;
25962;SDS011;13760;52.588;13.406;2023-06-24T12:59:26;5.25;;;4.40;;
25962;SDS011;13760;52.588;13.406;2023-06-24T13:01:52;6.55;;;4.43;;
25962;SDS011;13760;52.588;13.406;2023-06-24T13:04:18;8.93;;;4.40;;
25962;SDS011;13760;52.588;13.406;2023-06-24T13:06:45;5.93;;;4.47;;
25962;SDS011;13760;52.588;13.406;2023-06-24T13:09:11;6.10;;;4.30;;
25962;SDS011;13760;52.588;13.406;2023-06-24T13:11:36;7.03;;;4.07;;
25962;SDS011;13760;52.588;13.406;2023-06-24T13:14:02;7.25;;;4.57;;
25962;SDS011;13760;52.588;13.406;2023-06-24T13:16:28;7.47;;;4.28;;
25962;SDS011;13760;52.588;13.406;2023-06-24T13:18:54;7.88;;;4.65;;
25962;SDS011;13760;52.588;13.406;2023-06-24T13:21:19;8.77;;;4.55;;
25962;SDS011;13760;52.588;13.406;2023-06-24T13:23:45;5.25;;;4.20;;
25962;SDS011;13760;52.588;13.406;2023-06-24T13:26:11;8.05;;;4.30;;
25962;SDS011;13760;52.588;13.406;2023-06-24T13:28:37;5.45;;;4.38;;
25962;SDS011;13760;52.588;13.406;2023-06-24T13:31:03;7.15;;;4.22;;
25962;SDS011;13760;52.588;13.406;2023-06-24T13:33:28;4.45;;;4.05;;
25962;SDS011;13760;52.588;13.406;2023-06-24T13:35:54;4.82;;;4.30;;
25962;SDS011;13760;52.588;13.406;2023-06-24T13:38:21;5.90;;;3.88;;
25962;SDS011;13760;52.588;13.406;2023-06-24T13:40:46;6.07;;;4.13;;
25962;SDS011;13760;52.588;13.406;2023-06-24T13:43:12;5.30;;;3.90;;
25962;SDS011;13760;52.588;13.406;2023-06-24T13:45:38;4.40;;;4.00;;
25962;SDS011;13760;52.588;13.406;2023-06-24T13:48:03;6.93;;;4.28;;
25962;SDS011;13760;52.588;13.406;2023-06-24T13:50:29;6.18;;;4.30;;
25962;SDS011;13760;52.588;13.406;2023-06-24T13:52:55;7.07;;;4.03;;
25962;SDS011;13760;52.588;13.406;2023-06-24T13:55:21;6.78;;;4.25;;
25962;SDS011;13760;52.588;13.406;2023-06-24T13:57:47;5.15;;;3.83;;
25962;SDS011;13760;52.588;13.406;2023-06-24T14:00:12;6.60;;;4.15;;
25962;SDS011;13760;52.588;13.406;2023-06-24T14:02:39;5.10;;;4.25;;
25962;SDS011;13760;52.588;13.406;2023-06-24T14:05:05;5.25;;;4.07;;
25962;SDS011;13760;52.588;13.406;2023-06-24T14:07:31;6.45;;;4.20;;
25962;SDS011;13760;52.588;13.406;2023-06-24T14:09:57;7.25;;;4.40;;
25962;SDS011;13760;52.588;13.406;2023-06-24T14:12:22;8.13;;;4.53;;
25962;SDS011;13760;52.588;13.406;2023-06-24T14:14:48;6.50;;;4.03;;
25962;SDS011;13760;52.588;13.406;2023-06-24T14:17:13;4.82;;;4.32;;
25962;SDS011;13760;52.588;13.406;2023-06-24T14:19:39;6.45;;;4.38;;
25962;SDS011;13760;52.588;13.406;2023-06-24T14:22:06;4.18;;;3.85;;
25962;SDS011;13760;52.588;13.406;2023-06-24T14:24:32;5.45;;;4.15;;
25962;SDS011;13760;52.588;13.406;2023-06-24T14:26:58;4.57;;;3.90;;
25962;SDS011;13760;52.588;13.406;2023-06-24T14:29:24;5.15;;;4.20;;
25962;SDS011;13760;52.588;13.406;2023-06-24T14:31:50;6.40;;;3.95;;
25962;SDS011;13760;52.588;13.406;2023-06-24T14:34:16;4.72;;;4.00;;
25962;SDS011;13760;52.588;13.406;2023-06-24T14:36:42;7.00;;;4.38;;
25962;SDS011;13760;52.588;13.406;2023-06-24T14:39:11;5.78;;;4.20;;
25962;SDS011;13760;52.588;13.406;2023-06-24T14:41:39;6.68;;;4.25;;
25962;SDS011;13760;52.588;13.406;2023-06-24T14:44:04;6.50;;;3.95;;